Time;durP1;ratioP1;P1;durP2;ratioP2;P2;SDS_P1;SDS_P2;PMS_P1;PMS_P2;Temp;Humidity;BMP_temperature;BMP_pressure;BME280_temperature;BME280_humidity;BME280_pressure;Samples;Min_cycle;Max_cycle;Signal;HPM_P1;HPM_P2
2024/02/11 00:00:13;;;;;;;44.63;42.28;;;;;;;;;;5065102;28;20107;-55
2024/02/11 00:02:39;;;;;;;46.10;43.67;;;;;;;;;;5069819;28;20036;-56
2024/02/11 00:05:08;;;;;;;44.63;42.22;;;;;;;;;;5066329;28;20089;-55
2024/02/11 00:07:37;;;;;;;43.00;40.63;;;;;;;;;;5065247;28;20032;-56
2024/02/11 00:10:08;;;;;;;46.20;43.83;;;;;;;;;;5066783;28;20036;-55
2024/02/11 00:12:34;;;;;;;45.80;43.45;;;;;;;;;;5069060;28;20362;-53
2024/02/11 00:15:01;;;;;;;47.08;44.63;;;;;;;;;;5065684;28;20040;-52
2024/02/11 00:17:26;;;;;;;45.58;43.20;;;;;;;;;;5068008;28;20059;-54
2024/02/11 00:19:52;;;;;;;46.40;43.95;;;;;;;;;;5069805;28;20082;-51
2024/02/11 00:22:17;;;;;;;44.30;42.00;;;;;;;;;;5066431;28;20040;-53
2024/02/11 00:24:42;;;;;;;45.97;43.58;;;;;;;;;;5066087;28;20048;-48
2024/02/11 00:27:09;;;;;;;48.85;46.30;;;;;;;;;;5068859;28;20051;-64
2024/02/11 00:29:34;;;;;;;48.53;45.92;;;;;;;;;;5063868;28;20445;-55
2024/02/11 00:32:00;;;;;;;47.72;45.17;;;;;;;;;;5067052;28;20048;-63
2024/02/11 00:34:25;;;;;;;49.72;47.17;;;;;;;;;;5067523;28;21070;-64
2024/02/11 00:36:50;;;;;;;48.28;45.75;;;;;;;;;;5064263;28;20480;-52
2024/02/11 00:39:16;;;;;;;53.67;49.95;;;;;;;;;;5065079;28;20469;-52
2024/02/11 00:41:42;;;;;;;47.97;45.53;;;;;;;;;;5064961;28;20047;-51
2024/02/11 00:44:08;;;;;;;48.78;46.08;;;;;;;;;;5065066;28;20369;-63
2024/02/11 00:46:34;;;;;;;50.97;48.33;;;;;;;;;;5064294;28;20032;-52
2024/02/11 00:49:00;;;;;;;45.42;43.05;;;;;;;;;;5064980;28;20042;-54
2024/02/11 00:51:27;;;;;;;48.55;46.00;;;;;;;;;;5064074;28;20567;-54
2024/02/11 00:53:52;;;;;;;46.05;43.47;;;;;;;;;;5064498;28;20040;-61
2024/02/11 00:56:20;;;;;;;45.53;43.20;;;;;;;;;;5066039;28;20028;-49
2024/02/11 00:58:45;;;;;;;44.45;42.00;;;;;;;;;;5069720;28;20046;-50
2024/02/11 01:01:11;;;;;;;48.28;45.65;;;;;;;;;;5066201;28;20029;-54
2024/02/11 01:03:37;;;;;;;49.83;47.25;;;;;;;;;;5061716;28;20522;-55
2024/02/11 01:06:03;;;;;;;49.28;46.55;;;;;;;;;;5066526;28;20106;-52
2024/02/11 01:08:28;;;;;;;46.70;44.28;;;;;;;;;;5069225;28;20040;-49
2024/02/11 01:10:53;;;;;;;49.55;46.85;;;;;;;;;;5068583;28;20031;-52
2024/02/11 01:13:19;;;;;;;51.97;49.05;;;;;;;;;;5067323;28;20073;-51
2024/02/11 01:15:44;;;;;;;49.63;47.03;;;;;;;;;;5064861;28;20040;-51
2024/02/11 01:18:11;;;;;;;45.60;43.25;;;;;;;;;;5065267;28;20040;-54
2024/02/11 01:20:37;;;;;;;51.15;48.42;;;;;;;;;;5063842;28;20020;-51
2024/02/11 01:23:03;;;;;;;49.20;46.63;;;;;;;;;;5063972;28;20513;-54
2024/02/11 01:25:28;;;;;;;53.33;50.47;;;;;;;;;;5065591;28;20036;-52
2024/02/11 01:27:53;;;;;;;49.53;46.85;;;;;;;;;;5063778;28;20040;-49
2024/02/11 01:30:19;;;;;;;48.42;45.80;;;;;;;;;;5061969;28;20036;-51
2024/02/11 01:32:45;;;;;;;49.92;47.22;;;;;;;;;;5067493;28;20105;-50
2024/02/11 01:35:12;;;;;;;45.67;43.30;;;;;;;;;;5063847;28;20064;-49
2024/02/11 01:37:40;;;;;;;49.67;47.03;;;;;;;;;;5063120;28;20040;-50
2024/02/11 01:40:17;;;;;;;50.75;47.83;;;;;;;;;;5066056;28;20041;-51
2024/02/11 01:42:46;;;;;;;51.13;48.38;;;;;;;;;;5064120;28;20087;-49
2024/02/11 01:45:15;;;;;;;46.70;44.17;;;;;;;;;;5064621;28;20042;-50
2024/02/11 01:47:43;;;;;;;50.97;48.33;;;;;;;;;;5064269;28;20032;-50
2024/02/11 01:50:13;;;;;;;50.30;47.20;;;;;;;;;;5064189;28;20115;-53
2024/02/11 01:52:40;;;;;;;46.88;44.47;;;;;;;;;;5064370;28;20082;-54
2024/02/11 01:55:06;;;;;;;50.58;47.80;;;;;;;;;;5060405;28;20122;-54
2024/02/11 01:57:32;;;;;;;51.25;48.25;;;;;;;;;;5065445;28;20423;-52
2024/02/11 02:00:01;;;;;;;50.55;47.97;;;;;;;;;;5065977;28;20132;-50
2024/02/11 02:02:29;;;;;;;49.97;47.28;;;;;;;;;;5065163;28;20097;-51
2024/02/11 02:04:54;;;;;;;48.40;45.58;;;;;;;;;;5063989;28;20064;-49
2024/02/11 02:07:20;;;;;;;50.78;48.03;;;;;;;;;;5064436;28;20059;-52
2024/02/11 02:09:46;;;;;;;50.60;47.85;;;;;;;;;;5063037;28;20762;-51
2024/02/11 02:12:14;;;;;;;48.50;45.85;;;;;;;;;;5062608;28;20082;-54
2024/02/11 02:14:40;;;;;;;47.72;45.13;;;;;;;;;;5066934;28;20503;-54
2024/02/11 02:17:07;;;;;;;46.72;44.22;;;;;;;;;;5064631;28;20025;-51
2024/02/11 02:19:32;;;;;;;49.25;46.58;;;;;;;;;;5067467;28;20067;-55
2024/02/11 02:21:57;;;;;;;47.53;45.00;;;;;;;;;;5062841;28;20059;-52
2024/02/11 02:24:23;;;;;;;48.35;45.83;;;;;;;;;;5065529;28;20046;-48
2024/02/11 02:26:48;;;;;;;49.97;46.92;;;;;;;;;;5062407;28;20029;-50
2024/02/11 02:29:14;;;;;;;48.38;45.67;;;;;;;;;;5064765;28;20033;-51
2024/02/11 02:31:39;;;;;;;49.63;46.15;;;;;;;;;;5065967;28;20040;-51
2024/02/11 02:34:04;;;;;;;52.35;49.47;;;;;;;;;;5065777;28;20032;-53
2024/02/11 02:36:30;;;;;;;49.47;46.88;;;;;;;;;;5060709;28;20036;-53
2024/02/11 02:38:55;;;;;;;49.10;46.30;;;;;;;;;;5067712;28;20385;-50
2024/02/11 02:41:22;;;;;;;50.90;48.22;;;;;;;;;;5065263;28;20041;-53
2024/02/11 02:43:47;;;;;;;51.85;49.15;;;;;;;;;;5066698;28;20116;-52
2024/02/11 02:46:13;;;;;;;54.17;51.17;;;;;;;;;;5063940;28;20123;-54
2024/02/11 02:48:38;;;;;;;48.38;45.83;;;;;;;;;;5064194;28;20109;-52
2024/02/11 02:51:04;;;;;;;51.17;48.38;;;;;;;;;;5064473;28;20788;-50
2024/02/11 02:53:29;;;;;;;55.97;53.10;;;;;;;;;;5066111;28;20029;-52
2024/02/11 02:55:56;;;;;;;54.95;51.72;;;;;;;;;;5066889;28;20024;-51
2024/02/11 02:58:23;;;;;;;53.10;50.30;;;;;;;;;;5063702;28;20639;-52
2024/02/11 03:00:49;;;;;;;54.40;51.55;;;;;;;;;;5065725;28;20044;-50
2024/02/11 03:03:14;;;;;;;53.47;50.63;;;;;;;;;;5063675;28;20063;-51
2024/02/11 03:05:41;;;;;;;52.08;49.15;;;;;;;;;;5060523;28;20095;-50
2024/02/11 03:08:06;;;;;;;49.78;47.20;;;;;;;;;;5060545;28;20044;-52
2024/02/11 03:10:32;;;;;;;49.00;46.35;;;;;;;;;;5067032;28;20029;-53
2024/02/11 03:12:59;;;;;;;50.80;48.05;;;;;;;;;;5063647;28;20363;-50
2024/02/11 03:15:24;;;;;;;51.00;48.30;;;;;;;;;;5065075;28;20052;-48
2024/02/11 03:17:49;;;;;;;59.10;55.95;;;;;;;;;;5067792;28;20064;-48
2024/02/11 03:20:15;;;;;;;56.85;53.22;;;;;;;;;;5068683;28;20044;-52
2024/02/11 03:22:42;;;;;;;54.70;51.85;;;;;;;;;;5068174;28;20055;-52
2024/02/11 03:25:09;;;;;;;55.40;52.47;;;;;;;;;;5067864;28;20036;-52
2024/02/11 03:27:35;;;;;;;58.42;55.28;;;;;;;;;;5070895;28;20056;-49
2024/02/11 03:30:00;;;;;;;56.53;53.63;;;;;;;;;;5064539;28;20588;-57
2024/02/11 03:32:26;;;;;;;60.20;55.50;;;;;;;;;;5071695;28;20365;-51
2024/02/11 03:34:52;;;;;;;57.30;54.05;;;;;;;;;;5065826;28;20362;-51
2024/02/11 03:37:17;;;;;;;55.30;52.28;;;;;;;;;;5066525;28;20051;-50
2024/02/11 03:39:42;;;;;;;57.90;54.92;;;;;;;;;;5067937;28;20028;-50
2024/02/11 03:42:08;;;;;;;53.10;50.35;;;;;;;;;;5065472;28;20119;-52
2024/02/11 03:44:33;;;;;;;55.22;50.20;;;;;;;;;;5067698;28;20025;-50
2024/02/11 03:47:02;;;;;;;51.50;48.83;;;;;;;;;;5064967;28;20120;-53
2024/02/11 03:49:28;;;;;;;48.58;46.08;;;;;;;;;;5068485;28;20036;-50
2024/02/11 03:51:56;;;;;;;43.35;41.05;;;;;;;;;;5064469;28;20346;-51
2024/02/11 03:54:23;;;;;;;41.47;39.35;;;;;;;;;;5067670;28;20049;-53
2024/02/11 03:56:49;;;;;;;38.20;36.20;;;;;;;;;;5065643;28;20094;-50
2024/02/11 03:59:15;;;;;;;36.92;35.03;;;;;;;;;;5065314;28;20202;-53
2024/02/11 04:01:40;;;;;;;35.35;33.50;;;;;;;;;;5069738;28;20029;-50
2024/02/11 04:04:06;;;;;;;34.65;32.85;;;;;;;;;;5066312;28;20045;-53
2024/02/11 04:06:34;;;;;;;30.77;29.17;;;;;;;;;;5062034;28;20596;-52
2024/02/11 04:09:00;;;;;;;29.42;27.92;;;;;;;;;;5064971;28;20033;-49
2024/02/11 04:11:29;;;;;;;31.17;29.58;;;;;;;;;;5063744;28;20035;-53
2024/02/11 04:13:55;;;;;;;26.63;25.23;;;;;;;;;;5065987;28;20036;-52
2024/02/11 04:16:22;;;;;;;28.90;27.40;;;;;;;;;;5065170;28;20040;-50
2024/02/11 04:18:52;;;;;;;27.98;26.48;;;;;;;;;;5068813;28;20037;-50
2024/02/11 04:21:20;;;;;;;28.45;26.95;;;;;;;;;;5066124;28;20028;-52
2024/02/11 04:23:48;;;;;;;30.80;29.20;;;;;;;;;;5065259;28;20066;-50
2024/02/11 04:26:17;;;;;;;27.77;26.33;;;;;;;;;;5066334;28;20040;-52
2024/02/11 04:28:45;;;;;;;28.02;26.42;;;;;;;;;;5064736;28;20139;-52
2024/02/11 04:31:11;;;;;;;26.63;25.20;;;;;;;;;;5065679;28;20040;-52
2024/02/11 04:33:40;;;;;;;28.10;26.63;;;;;;;;;;5063945;28;20040;-50
2024/02/11 04:36:13;;;;;;;25.30;23.95;;;;;;;;;;5062594;28;20040;-50
2024/02/11 04:38:39;;;;;;;26.52;25.13;;;;;;;;;;5065300;28;20373;-47
2024/02/11 04:41:07;;;;;;;27.05;25.65;;;;;;;;;;5067106;28;20119;-52
2024/02/11 04:43:35;;;;;;;24.92;23.52;;;;;;;;;;5066294;28;20569;-51
2024/02/11 04:46:04;;;;;;;25.35;24.05;;;;;;;;;;5068047;28;20131;-52
2024/02/11 04:48:31;;;;;;;24.80;23.50;;;;;;;;;;5062390;28;20051;-50
2024/02/11 04:50:57;;;;;;;28.58;27.08;;;;;;;;;;5063311;28;20096;-50
2024/02/11 04:53:22;;;;;;;25.25;23.95;;;;;;;;;;5065344;28;20035;-51
2024/02/11 04:55:50;;;;;;;25.35;24.05;;;;;;;;;;5070739;28;20109;-49
2024/02/11 04:58:19;;;;;;;25.77;24.38;;;;;;;;;;5063318;28;20040;-52
2024/02/11 05:00:48;;;;;;;27.27;25.88;;;;;;;;;;5063970;28;20048;-50
2024/02/11 05:03:17;;;;;;;28.92;27.42;;;;;;;;;;5063746;28;20067;-50
2024/02/11 05:05:44;;;;;;;26.20;24.80;;;;;;;;;;5060390;28;20033;-51
2024/02/11 05:08:10;;;;;;;26.13;24.73;;;;;;;;;;5062137;28;20036;-49
2024/02/11 05:10:37;;;;;;;25.60;24.27;;;;;;;;;;5063367;28;20570;-47
2024/02/11 05:13:06;;;;;;;28.15;26.65;;;;;;;;;;5064053;28;20170;-50
2024/02/11 05:15:40;;;;;;;25.67;24.27;;;;;;;;;;5065188;28;20040;-51
2024/02/11 05:18:06;;;;;;;25.73;24.33;;;;;;;;;;5064236;28;20121;-49
2024/02/11 05:20:31;;;;;;;24.40;23.10;;;;;;;;;;5067829;28;20048;-50
2024/02/11 05:22:59;;;;;;;26.23;24.83;;;;;;;;;;5063263;28;20042;-51
2024/02/11 05:25:26;;;;;;;26.38;24.98;;;;;;;;;;5064376;28;20092;-50
2024/02/11 05:28:00;;;;;;;25.08;23.77;;;;;;;;;;5063040;28;20036;-50
2024/02/11 05:30:27;;;;;;;25.88;24.48;;;;;;;;;;5063146;28;20041;-49
2024/02/11 05:32:53;;;;;;;26.00;24.60;;;;;;;;;;5069151;28;20106;-47
2024/02/11 05:35:23;;;;;;;26.98;25.48;;;;;;;;;;5066860;28;20040;-50
2024/02/11 05:37:57;;;;;;;28.63;27.13;;;;;;;;;;5066187;28;20155;-50
2024/02/11 05:40:32;;;;;;;24.92;23.63;;;;;;;;;;5063795;28;20043;-51
2024/02/11 05:42:59;;;;;;;26.23;24.63;;;;;;;;;;5063156;28;20037;-49
2024/02/11 05:45:25;;;;;;;29.90;28.35;;;;;;;;;;5063349;28;20032;-48
2024/02/11 05:47:51;;;;;;;28.90;27.40;;;;;;;;;;5064859;28;20036;-51
2024/02/11 05:50:17;;;;;;;31.45;29.83;;;;;;;;;;5063523;28;20086;-50
2024/02/11 05:52:43;;;;;;;32.03;30.33;;;;;;;;;;5063304;28;20132;-47
2024/02/11 05:55:11;;;;;;;32.85;31.15;;;;;;;;;;5063774;28;20113;-51
2024/02/11 05:57:40;;;;;;;31.67;30.05;;;;;;;;;;5062108;28;20381;-49
2024/02/11 06:00:14;;;;;;;29.75;28.13;;;;;;;;;;5061187;28;21092;-46
2024/02/11 06:02:41;;;;;;;33.78;32.05;;;;;;;;;;5063350;28;20051;-52
2024/02/11 06:05:07;;;;;;;35.35;33.55;;;;;;;;;;5064222;28;20036;-47
2024/02/11 06:07:37;;;;;;;33.72;32.00;;;;;;;;;;5064963;28;20078;-52
2024/02/11 06:10:02;;;;;;;36.45;34.55;;;;;;;;;;5061111;28;20106;-53
2024/02/11 06:12:29;;;;;;;34.45;32.20;;;;;;;;;;5066776;28;20040;-49
2024/02/11 06:14:56;;;;;;;34.38;32.58;;;;;;;;;;5064409;28;20047;-48
2024/02/11 06:17:22;;;;;;;34.63;32.83;;;;;;;;;;5063020;28;20040;-50
2024/02/11 06:19:47;;;;;;;33.58;31.85;;;;;;;;;;5062296;28;20559;-52
2024/02/11 06:22:13;;;;;;;34.15;32.35;;;;;;;;;;5063371;28;20029;-49
2024/02/11 06:24:38;;;;;;;31.20;29.60;;;;;;;;;;5063005;28;20041;-52
2024/02/11 06:27:04;;;;;;;38.15;36.00;;;;;;;;;;5063580;28;20036;-51
2024/02/11 06:29:29;;;;;;;37.15;35.25;;;;;;;;;;5065516;28;20385;-60
2024/02/11 06:31:55;;;;;;;35.08;33.28;;;;;;;;;;5064354;28;20033;-62
2024/02/11 06:34:22;;;;;;;35.45;33.58;;;;;;;;;;5067028;28;20477;-62
2024/02/11 06:36:48;;;;;;;34.95;33.15;;;;;;;;;;5062833;28;20070;-60
2024/02/11 06:39:14;;;;;;;35.70;33.90;;;;;;;;;;5062902;28;20049;-61
2024/02/11 06:41:40;;;;;;;32.03;30.33;;;;;;;;;;5062671;28;20055;-60
2024/02/11 06:44:06;;;;;;;32.55;30.85;;;;;;;;;;5069209;28;20040;-61
2024/02/11 06:46:32;;;;;;;32.50;30.80;;;;;;;;;;5063741;28;20034;-62
2024/02/11 06:49:00;;;;;;;33.97;32.17;;;;;;;;;;5063112;28;20040;-62
2024/02/11 06:51:25;;;;;;;29.85;28.25;;;;;;;;;;5066744;28;20085;-62
2024/02/11 06:53:51;;;;;;;30.02;28.42;;;;;;;;;;5065506;28;20032;-61
2024/02/11 06:56:17;;;;;;;36.53;34.63;;;;;;;;;;5066608;28;20036;-61
2024/02/11 06:58:42;;;;;;;34.63;32.83;;;;;;;;;;5065076;28;20036;-61
2024/02/11 07:01:10;;;;;;;37.10;35.17;;;;;;;;;;5066367;28;20037;-61
2024/02/11 07:03:37;;;;;;;33.60;31.83;;;;;;;;;;5065515;28;20027;-61
2024/02/11 07:06:05;;;;;;;36.53;34.63;;;;;;;;;;5063969;28;20123;-61
2024/02/11 07:08:32;;;;;;;33.63;31.88;;;;;;;;;;5066464;28;20028;-61
2024/02/11 07:10:57;;;;;;;36.25;34.35;;;;;;;;;;5068304;28;20139;-61
2024/02/11 07:13:23;;;;;;;31.30;29.60;;;;;;;;;;5064092;28;20063;-61
2024/02/11 07:15:48;;;;;;;32.00;30.30;;;;;;;;;;5062543;28;20051;-61
2024/02/11 07:18:13;;;;;;;32.20;30.50;;;;;;;;;;5065821;28;20139;-60
2024/02/11 07:20:39;;;;;;;30.10;28.48;;;;;;;;;;5067049;28;20044;-60
2024/02/11 07:23:05;;;;;;;35.03;33.00;;;;;;;;;;5066512;28;20043;-62
2024/02/11 07:25:31;;;;;;;31.40;29.73;;;;;;;;;;5065573;28;20032;-61
2024/02/11 07:27:56;;;;;;;30.17;28.58;;;;;;;;;;5064925;28;20067;-62
2024/02/11 07:30:22;;;;;;;30.25;28.60;;;;;;;;;;5065212;28;20054;-62
2024/02/11 07:32:47;;;;;;;29.30;27.67;;;;;;;;;;5065679;28;20032;-62
2024/02/11 07:35:13;;;;;;;28.73;27.23;;;;;;;;;;5064020;28;20102;-62
2024/02/11 07:37:38;;;;;;;29.17;27.58;;;;;;;;;;5067494;28;20572;-61
2024/02/11 07:40:09;;;;;;;29.27;27.33;;;;;;;;;;5064776;28;20044;-62
2024/02/11 07:42:34;;;;;;;31.25;29.55;;;;;;;;;;5063142;28;20039;-62
2024/02/11 07:45:00;;;;;;;28.27;26.77;;;;;;;;;;5064354;28;20020;-61
2024/02/11 07:47:25;;;;;;;31.52;29.77;;;;;;;;;;5062679;28;20037;-64
2024/02/11 07:49:51;;;;;;;31.75;30.08;;;;;;;;;;5064759;28;20032;-63
2024/02/11 07:52:17;;;;;;;29.50;27.80;;;;;;;;;;5063474;28;20044;-63
2024/02/11 07:54:44;;;;;;;30.38;28.67;;;;;;;;;;5064369;28;20046;-63
2024/02/11 07:57:10;;;;;;;30.98;29.35;;;;;;;;;;5062986;28;20055;-62
2024/02/11 07:59:38;;;;;;;30.98;29.15;;;;;;;;;;5064386;28;20613;-62
2024/02/11 08:02:04;;;;;;;30.20;28.35;;;;;;;;;;5065747;28;20402;-62
2024/02/11 08:04:30;;;;;;;29.92;27.95;;;;;;;;;;5069777;28;20029;-62
2024/02/11 08:06:56;;;;;;;35.28;33.25;;;;;;;;;;5065077;28;20028;-63
2024/02/11 08:09:21;;;;;;;37.72;35.72;;;;;;;;;;5062030;28;20039;-63
2024/02/11 08:11:47;;;;;;;38.47;36.33;;;;;;;;;;5065534;28;20032;-63
2024/02/11 08:14:12;;;;;;;37.28;35.25;;;;;;;;;;5067691;28;20041;-63
2024/02/11 08:16:38;;;;;;;39.65;37.58;;;;;;;;;;5064501;28;20052;-63
2024/02/11 08:19:03;;;;;;;35.58;33.65;;;;;;;;;;5062225;28;20032;-63
2024/02/11 08:21:29;;;;;;;39.92;37.55;;;;;;;;;;5064439;28;20526;-64
2024/02/11 08:23:56;;;;;;;38.40;36.30;;;;;;;;;;5064208;28;20627;-63
2024/02/11 08:26:22;;;;;;;38.08;34.42;;;;;;;;;;5062084;28;20154;-62
2024/02/11 08:28:49;;;;;;;35.60;33.20;;;;;;;;;;5065625;28;20097;-63
2024/02/11 08:31:14;;;;;;;35.85;33.67;;;;;;;;;;5060852;28;20040;-63
2024/02/11 08:33:44;;;;;;;43.65;41.17;;;;;;;;;;5060346;28;20033;-64
2024/02/11 08:36:10;;;;;;;40.28;38.13;;;;;;;;;;5060163;28;20040;-63
2024/02/11 08:38:35;;;;;;;34.17;32.35;;;;;;;;;;5063714;28;20028;-63
2024/02/11 08:41:02;;;;;;;41.05;38.75;;;;;;;;;;5063260;28;20036;-64
2024/02/11 08:43:28;;;;;;;39.45;37.42;;;;;;;;;;5063893;28;20481;-63
2024/02/11 08:45:53;;;;;;;38.67;36.58;;;;;;;;;;5065542;28;20065;-64
2024/02/11 08:48:20;;;;;;;40.13;38.03;;;;;;;;;;5061792;28;20470;-63
2024/02/11 08:50:46;;;;;;;39.88;37.78;;;;;;;;;;5066283;28;20031;-64
2024/02/11 08:53:11;;;;;;;42.38;40.05;;;;;;;;;;5063143;28;20457;-65
2024/02/11 08:55:37;;;;;;;43.30;41.05;;;;;;;;;;5060453;28;20063;-63
2024/02/11 08:58:04;;;;;;;40.15;38.05;;;;;;;;;;5060179;28;20085;-64
2024/02/11 09:00:29;;;;;;;42.60;40.33;;;;;;;;;;5061550;28;20047;-61
2024/02/11 09:02:56;;;;;;;40.08;37.97;;;;;;;;;;5062880;28;20056;-63
2024/02/11 09:05:22;;;;;;;41.10;38.97;;;;;;;;;;5062069;28;20088;-63
2024/02/11 09:07:48;;;;;;;41.67;39.33;;;;;;;;;;5068365;28;20045;-62
2024/02/11 09:10:14;;;;;;;42.53;40.33;;;;;;;;;;5061947;28;20029;-62
2024/02/11 09:12:39;;;;;;;38.38;36.20;;;;;;;;;;5063458;28;20035;-63
2024/02/11 09:15:05;;;;;;;40.22;38.08;;;;;;;;;;5063886;28;20430;-62
2024/02/11 09:17:32;;;;;;;39.35;37.15;;;;;;;;;;5061790;28;20090;-63
2024/02/11 09:19:58;;;;;;;37.90;35.90;;;;;;;;;;5063846;28;20526;-63
2024/02/11 09:22:24;;;;;;;39.95;37.85;;;;;;;;;;5059445;28;20040;-64
2024/02/11 09:24:50;;;;;;;39.75;37.70;;;;;;;;;;5060756;28;20025;-63
2024/02/11 09:27:16;;;;;;;42.67;40.40;;;;;;;;;;5057333;28;20056;-64
2024/02/11 09:29:41;;;;;;;40.25;37.92;;;;;;;;;;5060218;28;20476;-63
2024/02/11 09:32:08;;;;;;;41.28;39.17;;;;;;;;;;5060664;28;20024;-62
2024/02/11 09:34:34;;;;;;;40.10;38.03;;;;;;;;;;5056994;28;20097;-64
2024/02/11 09:36:59;;;;;;;43.50;41.10;;;;;;;;;;5062997;28;20036;-63
2024/02/11 09:39:24;;;;;;;43.38;41.13;;;;;;;;;;5062419;28;20061;-63
2024/02/11 09:41:51;;;;;;;39.10;37.10;;;;;;;;;;5061880;28;20142;-63
2024/02/11 09:44:18;;;;;;;41.15;39.03;;;;;;;;;;5062441;28;20033;-63
2024/02/11 09:46:45;;;;;;;43.00;40.70;;;;;;;;;;5060338;28;20523;-53
2024/02/11 09:49:15;;;;;;;43.28;40.88;;;;;;;;;;5060202;28;20041;-53
2024/02/11 09:51:41;;;;;;;40.55;38.17;;;;;;;;;;5056865;28;20112;-63
2024/02/11 09:54:07;;;;;;;45.95;43.00;;;;;;;;;;5060647;28;20137;-51
2024/02/11 09:56:32;;;;;;;44.05;41.65;;;;;;;;;;5062412;28;20111;-53
2024/02/11 09:58:58;;;;;;;41.47;39.28;;;;;;;;;;5058017;28;20059;-52
2024/02/11 10:01:24;;;;;;;41.92;39.72;;;;;;;;;;5061661;28;20635;-54
2024/02/11 10:03:54;;;;;;;40.85;38.65;;;;;;;;;;5062597;28;20032;-54
2024/02/11 10:06:27;;;;;;;38.83;36.80;;;;;;;;;;5065381;28;20032;-52
2024/02/11 10:08:53;;;;;;;42.80;40.47;;;;;;;;;;5060239;28;20677;-62
2024/02/11 10:11:19;;;;;;;42.08;39.88;;;;;;;;;;5059103;28;20086;-50
2024/02/11 10:13:45;;;;;;;43.33;40.92;;;;;;;;;;5061523;28;20750;-50
2024/02/11 10:16:12;;;;;;;39.47;37.38;;;;;;;;;;5063254;28;20044;-53
2024/02/11 10:18:39;;;;;;;38.30;36.33;;;;;;;;;;5065771;28;20140;-50
2024/02/11 10:21:08;;;;;;;41.70;39.50;;;;;;;;;;5059773;28;20170;-52
2024/02/11 10:23:38;;;;;;;38.40;36.45;;;;;;;;;;5065524;28;20032;-49
2024/02/11 10:26:07;;;;;;;44.25;41.45;;;;;;;;;;5069044;28;20052;-52
2024/02/11 10:28:37;;;;;;;41.03;38.92;;;;;;;;;;5066280;28;20123;-54
2024/02/11 10:31:02;;;;;;;39.38;37.35;;;;;;;;;;5063393;28;20047;-56
2024/02/11 10:33:28;;;;;;;42.15;39.95;;;;;;;;;;5064178;28;20036;-53
2024/02/11 10:35:56;;;;;;;40.08;37.97;;;;;;;;;;5066900;28;20041;-54
2024/02/11 10:38:21;;;;;;;40.90;38.70;;;;;;;;;;5060092;28;20036;-52
2024/02/11 10:40:47;;;;;;;39.72;37.63;;;;;;;;;;5068884;28;20041;-52
2024/02/11 10:43:15;;;;;;;41.70;39.40;;;;;;;;;;5063442;28;20759;-53
2024/02/11 10:45:40;;;;;;;38.30;36.30;;;;;;;;;;5067510;28;20035;-53
2024/02/11 10:48:06;;;;;;;38.50;36.50;;;;;;;;;;5066605;28;20341;-52
2024/02/11 10:50:32;;;;;;;39.58;37.50;;;;;;;;;;5064990;28;20036;-54
2024/02/11 10:53:05;;;;;;;35.67;33.78;;;;;;;;;;5067259;28;20097;-52
2024/02/11 10:55:40;;;;;;;38.33;36.35;;;;;;;;;;5062130;28;20054;-54
2024/02/11 10:58:08;;;;;;;30.83;29.23;;;;;;;;;;5064105;28;20035;-52
2024/02/11 11:00:34;;;;;;;35.00;33.10;;;;;;;;;;5063317;28;20064;-52
2024/02/11 11:03:04;;;;;;;33.63;31.83;;;;;;;;;;5064950;28;20097;-51
2024/02/11 11:05:36;;;;;;;33.75;31.98;;;;;;;;;;5065337;28;20040;-51
2024/02/11 11:08:02;;;;;;;33.65;31.95;;;;;;;;;;5069098;28;20044;-62
2024/02/11 11:10:35;;;;;;;33.72;32.00;;;;;;;;;;5067411;28;20115;-51
2024/02/11 11:13:00;;;;;;;35.83;33.85;;;;;;;;;;5062880;28;20039;-51
2024/02/11 11:15:33;;;;;;;35.03;33.22;;;;;;;;;;5066323;28;20044;-62
2024/02/11 11:18:03;;;;;;;34.92;33.13;;;;;;;;;;5064830;28;20377;-62
2024/02/11 11:20:30;;;;;;;35.95;34.10;;;;;;;;;;5066122;28;20032;-62
2024/02/11 11:22:56;;;;;;;41.30;39.10;;;;;;;;;;5066150;28;20039;-62
2024/02/11 11:25:27;;;;;;;39.85;37.85;;;;;;;;;;5065160;28;20086;-61
2024/02/11 11:27:52;;;;;;;38.58;36.58;;;;;;;;;;5068929;28;20109;-62
2024/02/11 11:30:19;;;;;;;35.47;33.58;;;;;;;;;;5066367;28;20689;-61
2024/02/11 11:32:47;;;;;;;37.00;35.10;;;;;;;;;;5070258;28;20029;-61
2024/02/11 11:35:21;;;;;;;37.00;35.10;;;;;;;;;;5063161;28;20037;-62
2024/02/11 11:37:47;;;;;;;38.40;36.40;;;;;;;;;;5065831;28;20638;-62
2024/02/11 11:40:15;;;;;;;33.22;31.52;;;;;;;;;;5064326;28;20036;-62
2024/02/11 11:42:40;;;;;;;36.72;34.78;;;;;;;;;;5064309;28;20048;-62
2024/02/11 11:45:10;;;;;;;36.22;34.38;;;;;;;;;;5063515;28;20112;-62
2024/02/11 11:47:38;;;;;;;38.42;36.03;;;;;;;;;;5065020;28;20144;-49
2024/02/11 11:50:08;;;;;;;34.17;32.40;;;;;;;;;;5065239;28;20043;-52
2024/02/11 11:52:34;;;;;;;36.97;35.08;;;;;;;;;;5064075;28;20094;-48
2024/02/11 11:55:03;;;;;;;31.58;29.88;;;;;;;;;;5065712;28;20036;-60
2024/02/11 11:57:29;;;;;;;34.22;32.40;;;;;;;;;;5062570;28;20497;-62
2024/02/11 11:59:58;;;;;;;36.40;34.53;;;;;;;;;;5065316;28;20046;-62
2024/02/11 12:02:28;;;;;;;37.67;35.67;;;;;;;;;;5062847;28;20040;-52
2024/02/11 12:04:54;;;;;;;40.00;37.92;;;;;;;;;;5064811;28;20623;-50
2024/02/11 12:07:22;;;;;;;38.50;36.20;;;;;;;;;;5065765;28;20037;-62
2024/02/11 12:09:52;;;;;;;36.40;34.50;;;;;;;;;;5061543;28;20036;-62
2024/02/11 12:12:18;;;;;;;37.97;35.97;;;;;;;;;;5068037;28;20565;-48
2024/02/11 12:14:44;;;;;;;38.05;36.05;;;;;;;;;;5064636;28;20044;-52
2024/02/11 12:17:09;;;;;;;39.47;37.45;;;;;;;;;;5066955;28;20040;-49
2024/02/11 12:19:40;;;;;;;39.00;37.00;;;;;;;;;;5064208;28;20051;-49
2024/02/11 12:22:06;;;;;;;41.95;39.75;;;;;;;;;;5062197;28;20523;-51
2024/02/11 12:24:38;;;;;;;42.35;40.20;;;;;;;;;;5066691;28;20040;-61
2024/02/11 12:27:05;;;;;;;40.85;38.75;;;;;;;;;;5065928;28;20043;-62
2024/02/11 12:29:31;;;;;;;41.97;39.83;;;;;;;;;;5066731;28;20048;-61
2024/02/11 12:31:56;;;;;;;41.92;39.67;;;;;;;;;;5052988;28;20475;-51
2024/02/11 12:34:24;;;;;;;41.53;39.38;;;;;;;;;;5065239;28;20509;-51
2024/02/11 12:36:58;;;;;;;40.60;38.50;;;;;;;;;;5065188;28;20030;-62
2024/02/11 12:39:25;;;;;;;44.78;42.47;;;;;;;;;;5068275;28;20037;-62
2024/02/11 12:41:51;;;;;;;43.33;41.13;;;;;;;;;;5063745;28;20036;-62
2024/02/11 12:44:17;;;;;;;47.50;44.78;;;;;;;;;;5063449;28;20344;-62
2024/02/11 12:46:44;;;;;;;42.70;40.17;;;;;;;;;;5066299;28;20043;-62
2024/02/11 12:49:09;;;;;;;39.40;37.40;;;;;;;;;;5064481;28;20032;-62
2024/02/11 12:51:34;;;;;;;39.13;37.13;;;;;;;;;;5064580;28;20042;-62
2024/02/11 12:54:00;;;;;;;35.75;33.85;;;;;;;;;;5064518;28;20064;-61
2024/02/11 12:56:26;;;;;;;34.78;32.97;;;;;;;;;;5063251;28;20112;-62
2024/02/11 12:58:51;;;;;;;38.08;36.10;;;;;;;;;;5062331;28;20538;-62
2024/02/11 13:01:17;;;;;;;39.58;37.47;;;;;;;;;;5062821;28;20354;-61
2024/02/11 13:03:43;;;;;;;40.25;38.17;;;;;;;;;;5049332;28;20197;-61
2024/02/11 13:06:09;;;;;;;35.83;33.97;;;;;;;;;;5062709;28;20041;-62
2024/02/11 13:08:35;;;;;;;27.20;25.63;;;;;;;;;;5046619;28;20033;-61
2024/02/11 13:11:01;;;;;;;28.25;26.77;;;;;;;;;;5064554;28;20126;-62
2024/02/11 13:13:27;;;;;;;27.33;25.88;;;;;;;;;;5063419;28;20369;-53
2024/02/11 13:15:52;;;;;;;28.80;27.30;;;;;;;;;;5062364;28;20471;-51
2024/02/11 13:18:19;;;;;;;27.92;26.40;;;;;;;;;;5065254;28;20158;-52
2024/02/11 13:20:45;;;;;;;25.75;24.05;;;;;;;;;;5062269;28;20130;-53
2024/02/11 13:23:11;;;;;;;25.63;24.23;;;;;;;;;;5063514;28;20036;-53
2024/02/11 13:25:38;;;;;;;26.38;24.88;;;;;;;;;;5062110;28;20039;-53
2024/02/11 13:28:04;;;;;;;26.42;25.02;;;;;;;;;;5061665;28;20150;-54
2024/02/11 13:30:30;;;;;;;25.80;24.42;;;;;;;;;;5061535;28;20124;-52
2024/02/11 13:32:56;;;;;;;26.08;24.70;;;;;;;;;;5062996;28;20040;-54
2024/02/11 13:35:21;;;;;;;24.90;23.60;;;;;;;;;;5065526;28;20024;-60
2024/02/11 13:37:47;;;;;;;25.92;24.55;;;;;;;;;;5064793;28;20036;-61
2024/02/11 13:40:12;;;;;;;23.75;22.45;;;;;;;;;;5063799;28;20039;-62
2024/02/11 13:42:41;;;;;;;22.58;21.38;;;;;;;;;;5065599;28;20111;-62
2024/02/11 13:45:11;;;;;;;23.40;22.10;;;;;;;;;;5065946;28;20105;-60
2024/02/11 13:47:37;;;;;;;20.48;19.38;;;;;;;;;;5065412;28;20100;-62
2024/02/11 13:50:03;;;;;;;22.13;20.92;;;;;;;;;;5064001;28;20365;-62
2024/02/11 13:52:29;;;;;;;23.17;21.52;;;;;;;;;;5063263;28;20838;-60
2024/02/11 13:54:54;;;;;;;21.77;20.58;;;;;;;;;;5064748;28;20115;-62
2024/02/11 13:57:19;;;;;;;26.48;25.08;;;;;;;;;;5065522;28;20031;-62
2024/02/11 13:59:45;;;;;;;23.92;22.63;;;;;;;;;;5062157;28;20074;-51
2024/02/11 14:02:12;;;;;;;23.90;22.60;;;;;;;;;;5064312;28;20334;-53
2024/02/11 14:04:38;;;;;;;26.83;25.42;;;;;;;;;;5062287;28;20112;-53
2024/02/11 14:07:05;;;;;;;23.23;22.02;;;;;;;;;;5062636;28;20040;-53
2024/02/11 14:09:31;;;;;;;23.55;22.25;;;;;;;;;;5065086;28;20028;-50
2024/02/11 14:11:56;;;;;;;23.50;22.00;;;;;;;;;;5059712;28;20036;-51